sensor_id;sensor_type;location;lat;lon;timestamp;temperature;humidity
25628;DHT22;40915;50.826;4.356;2023-10-13T00:02:02;17.90;99.90
25628;DHT22;40915;50.826;4.356;2023-10-13T00:04:30;17.80;99.90
25628;DHT22;40915;50.826;4.356;2023-10-13T00:06:58;17.80;99.90
25628;DHT22;40915;50.826;4.356;2023-10-13T00:09:25;17.80;99.90
25628;DHT22;40915;50.826;4.356;2023-10-13T00:11:58;17.80;99.90
25628;DHT22;40915;50.826;4.356;2023-10-13T00:14:23;17.80;99.90
25628;DHT22;40915;50.826;4.356;2023-10-13T00:16:59;17.80;99.90
25628;DHT22;40915;50.826;4.356;2023-10-13T00:19:35;17.80;99.90
25628;DHT22;40915;50.826;4.356;2023-10-13T00:22:13;17.80;99.90
25628;DHT22;40915;50.826;4.356;2023-10-13T00:24:42;17.80;99.90
25628;DHT22;40915;50.826;4.356;2023-10-13T00:27:16;17.80;99.90
25628;DHT22;40915;50.826;4.356;2023-10-13T00:30:07;17.80;99.90
25628;DHT22;40915;50.826;4.356;2023-10-13T00:32:43;17.80;99.90
25628;DHT22;40915;50.826;4.356;2023-10-13T00:35:13;17.80;99.90
25628;DHT22;40915;50.826;4.356;2023-10-13T00:37:51;17.80;99.90
25628;DHT22;40915;50.826;4.356;2023-10-13T00:40:19;17.80;99.90
25628;DHT22;40915;50.826;4.356;2023-10-13T00:43:00;17.80;99.90
25628;DHT22;40915;50.826;4.356;2023-10-13T00:45:55;17.70;99.90
25628;DHT22;40915;50.826;4.356;2023-10-13T00:48:32;17.70;99.90
25628;DHT22;40915;50.826;4.356;2023-10-13T00:51:07;17.70;99.90
25628;DHT22;40915;50.826;4.356;2023-10-13T00:53:35;17.70;99.90
25628;DHT22;40915;50.826;4.356;2023-10-13T00:56:05;17.70;99.90
25628;DHT22;40915;50.826;4.356;2023-10-13T00:58:49;17.70;99.90
25628;DHT22;40915;50.826;4.356;2023-10-13T01:01:17;17.70;99.90
25628;DHT22;40915;50.826;4.356;2023-10-13T01:03:55;17.70;99.90
25628;DHT22;40915;50.826;4.356;2023-10-13T01:06:25;17.70;99.90
25628;DHT22;40915;50.826;4.356;2023-10-13T01:09:01;17.70;99.90
25628;DHT22;40915;50.826;4.356;2023-10-13T01:11:42;17.70;99.90
25628;DHT22;40915;50.826;4.356;2023-10-13T01:14:09;17.70;99.90
25628;DHT22;40915;50.826;4.356;2023-10-13T01:16:37;17.70;99.90
25628;DHT22;40915;50.826;4.356;2023-10-13T01:19:12;17.80;99.90
25628;DHT22;40915;50.826;4.356;2023-10-13T01:21:38;17.80;99.90
25628;DHT22;40915;50.826;4.356;2023-10-13T01:24:07;17.80;99.90
25628;DHT22;40915;50.826;4.356;2023-10-13T01:26:34;17.80;99.90
25628;DHT22;40915;50.826;4.356;2023-10-13T01:29:05;17.80;99.90
25628;DHT22;40915;50.826;4.356;2023-10-13T01:31:44;17.80;99.90
25628;DHT22;40915;50.826;4.356;2023-10-13T01:34:16;17.80;99.90
25628;DHT22;40915;50.826;4.356;2023-10-13T01:36:52;17.80;99.90
25628;DHT22;40915;50.826;4.356;2023-10-13T01:39:23;17.80;99.90
25628;DHT22;40915;50.826;4.356;2023-10-13T01:41:54;17.80;99.90
25628;DHT22;40915;50.826;4.356;2023-10-13T01:44:27;17.80;99.90
25628;DHT22;40915;50.826;4.356;2023-10-13T01:46:59;17.70;99.90
25628;DHT22;40915;50.826;4.356;2023-10-13T01:49:25;17.80;99.90
25628;DHT22;40915;50.826;4.356;2023-10-13T01:51:51;17.80;99.90
25628;DHT22;40915;50.826;4.356;2023-10-13T01:54:17;17.80;99.90
25628;DHT22;40915;50.826;4.356;2023-10-13T01:56:43;17.70;99.90
25628;DHT22;40915;50.826;4.356;2023-10-13T01:59:12;17.70;99.90
25628;DHT22;40915;50.826;4.356;2023-10-13T02:01:38;17.70;99.90
25628;DHT22;40915;50.826;4.356;2023-10-13T02:04:05;17.80;99.90
25628;DHT22;40915;50.826;4.356;2023-10-13T02:06:33;17.80;99.90
25628;DHT22;40915;50.826;4.356;2023-10-13T02:09:04;17.80;99.90
25628;DHT22;40915;50.826;4.356;2023-10-13T02:11:44;17.80;99.90
25628;DHT22;40915;50.826;4.356;2023-10-13T02:14:13;17.80;99.90
25628;DHT22;40915;50.826;4.356;2023-10-13T02:16:42;17.80;99.90
25628;DHT22;40915;50.826;4.356;2023-10-13T02:19:08;17.80;99.90
25628;DHT22;40915;50.826;4.356;2023-10-13T02:21:34;17.80;99.90
25628;DHT22;40915;50.826;4.356;2023-10-13T02:24:08;17.90;99.90
25628;DHT22;40915;50.826;4.356;2023-10-13T02:26:40;17.90;99.90
25628;DHT22;40915;50.826;4.356;2023-10-13T02:29:06;17.90;99.90
25628;DHT22;40915;50.826;4.356;2023-10-13T02:31:42;17.90;99.90
25628;DHT22;40915;50.826;4.356;2023-10-13T02:34:08;17.80;99.90
25628;DHT22;40915;50.826;4.356;2023-10-13T02:36:38;17.80;99.90
25628;DHT22;40915;50.826;4.356;2023-10-13T02:39:15;17.80;99.90
25628;DHT22;40915;50.826;4.356;2023-10-13T02:41:51;17.80;99.90
25628;DHT22;40915;50.826;4.356;2023-10-13T02:44:18;17.80;99.90
25628;DHT22;40915;50.826;4.356;2023-10-13T02:46:54;17.90;99.90
25628;DHT22;40915;50.826;4.356;2023-10-13T02:49:26;17.90;99.90
25628;DHT22;40915;50.826;4.356;2023-10-13T02:51:52;17.90;99.90
25628;DHT22;40915;50.826;4.356;2023-10-13T02:54:18;17.80;99.90
25628;DHT22;40915;50.826;4.356;2023-10-13T02:56:44;17.90;99.90
25628;DHT22;40915;50.826;4.356;2023-10-13T02:59:26;17.90;99.90
25628;DHT22;40915;50.826;4.356;2023-10-13T03:02:21;17.80;99.90
25628;DHT22;40915;50.826;4.356;2023-10-13T03:04:56;17.80;99.90
25628;DHT22;40915;50.826;4.356;2023-10-13T03:07:25;17.90;99.90
25628;DHT22;40915;50.826;4.356;2023-10-13T03:09:55;17.90;99.90
25628;DHT22;40915;50.826;4.356;2023-10-13T03:12:38;17.80;99.90
25628;DHT22;40915;50.826;4.356;2023-10-13T03:15:05;17.90;99.90
25628;DHT22;40915;50.826;4.356;2023-10-13T03:17:46;17.90;99.90
25628;DHT22;40915;50.826;4.356;2023-10-13T03:20:13;17.90;99.90
25628;DHT22;40915;50.826;4.356;2023-10-13T03:22:41;17.90;99.90
25628;DHT22;40915;50.826;4.356;2023-10-13T03:25:10;17.90;99.90
25628;DHT22;40915;50.826;4.356;2023-10-13T03:27:43;17.90;99.90
25628;DHT22;40915;50.826;4.356;2023-10-13T03:30:18;17.90;99.90
25628;DHT22;40915;50.826;4.356;2023-10-13T03:32:46;17.90;99.90
25628;DHT22;40915;50.826;4.356;2023-10-13T03:35:14;17.90;99.90
25628;DHT22;40915;50.826;4.356;2023-10-13T03:37:50;17.90;99.90
25628;DHT22;40915;50.826;4.356;2023-10-13T03:40:15;17.90;99.90
25628;DHT22;40915;50.826;4.356;2023-10-13T03:43:01;18.00;99.90
25628;DHT22;40915;50.826;4.356;2023-10-13T03:45:39;17.90;99.90
25628;DHT22;40915;50.826;4.356;2023-10-13T03:51:01;17.90;99.90
25628;DHT22;40915;50.826;4.356;2023-10-13T03:53:35;17.90;99.90
25628;DHT22;40915;50.826;4.356;2023-10-13T03:56:07;17.90;99.90
25628;DHT22;40915;50.826;4.356;2023-10-13T03:58:37;17.90;99.90
25628;DHT22;40915;50.826;4.356;2023-10-13T04:01:04;17.90;99.90
25628;DHT22;40915;50.826;4.356;2023-10-13T04:03:31;17.90;99.90
25628;DHT22;40915;50.826;4.356;2023-10-13T04:06:04;17.90;99.90
25628;DHT22;40915;50.826;4.356;2023-10-13T04:08:33;17.90;99.90
25628;DHT22;40915;50.826;4.356;2023-10-13T04:11:08;17.90;99.90
25628;DHT22;40915;50.826;4.356;2023-10-13T04:13:53;17.90;99.90
25628;DHT22;40915;50.826;4.356;2023-10-13T04:16:37;17.90;99.90
25628;DHT22;40915;50.826;4.356;2023-10-13T04:19:04;17.90;99.90
25628;DHT22;40915;50.826;4.356;2023-10-13T04:21:34;17.90;99.90
25628;DHT22;40915;50.826;4.356;2023-10-13T04:24:10;17.90;99.90
25628;DHT22;40915;50.826;4.356;2023-10-13T04:26:54;17.90;99.90
25628;DHT22;40915;50.826;4.356;2023-10-13T04:29:43;17.90;99.90
25628;DHT22;40915;50.826;4.356;2023-10-13T04:32:27;17.90;99.90
25628;DHT22;40915;50.826;4.356;2023-10-13T04:35:04;17.90;99.90
25628;DHT22;40915;50.826;4.356;2023-10-13T04:37:51;17.90;99.90
25628;DHT22;40915;50.826;4.356;2023-10-13T04:40:23;17.90;99.90
25628;DHT22;40915;50.826;4.356;2023-10-13T04:43:00;17.80;99.90
25628;DHT22;40915;50.826;4.356;2023-10-13T04:45:31;17.80;99.90
25628;DHT22;40915;50.826;4.356;2023-10-13T04:47:57;17.90;99.90
25628;DHT22;40915;50.826;4.356;2023-10-13T04:50:24;17.90;99.90
25628;DHT22;40915;50.826;4.356;2023-10-13T04:53:00;17.80;99.90
25628;DHT22;40915;50.826;4.356;2023-10-13T04:55:38;17.80;99.90
25628;DHT22;40915;50.826;4.356;2023-10-13T04:58:22;17.90;99.90
25628;DHT22;40915;50.826;4.356;2023-10-13T05:01:00;17.90;99.90
25628;DHT22;40915;50.826;4.356;2023-10-13T05:03:44;17.80;99.90
25628;DHT22;40915;50.826;4.356;2023-10-13T05:06:28;17.90;99.90
25628;DHT22;40915;50.826;4.356;2023-10-13T05:09:10;17.90;99.90
25628;DHT22;40915;50.826;4.356;2023-10-13T05:11:54;17.90;99.90
25628;DHT22;40915;50.826;4.356;2023-10-13T05:14:39;17.90;99.90
25628;DHT22;40915;50.826;4.356;2023-10-13T05:17:23;17.90;99.90
25628;DHT22;40915;50.826;4.356;2023-10-13T05:20:08;17.90;99.90
25628;DHT22;40915;50.826;4.356;2023-10-13T05:22:52;17.90;99.90
25628;DHT22;40915;50.826;4.356;2023-10-13T05:25:37;17.90;99.90
25628;DHT22;40915;50.826;4.356;2023-10-13T05:28:21;18.00;99.90
25628;DHT22;40915;50.826;4.356;2023-10-13T05:31:07;18.00;99.90
25628;DHT22;40915;50.826;4.356;2023-10-13T05:33:51;17.90;99.90
25628;DHT22;40915;50.826;4.356;2023-10-13T05:36:35;17.90;99.90
25628;DHT22;40915;50.826;4.356;2023-10-13T05:39:20;17.90;99.90
25628;DHT22;40915;50.826;4.356;2023-10-13T05:42:04;17.80;99.90
25628;DHT22;40915;50.826;4.356;2023-10-13T05:44:48;17.90;99.90
25628;DHT22;40915;50.826;4.356;2023-10-13T05:47:32;17.90;99.90
25628;DHT22;40915;50.826;4.356;2023-10-13T05:50:05;17.80;99.90
25628;DHT22;40915;50.826;4.356;2023-10-13T05:52:39;17.90;99.90
25628;DHT22;40915;50.826;4.356;2023-10-13T05:55:27;17.90;99.90
25628;DHT22;40915;50.826;4.356;2023-10-13T05:58:12;18.00;99.90
25628;DHT22;40915;50.826;4.356;2023-10-13T06:00:56;17.90;99.90
25628;DHT22;40915;50.826;4.356;2023-10-13T06:03:40;18.00;99.90
25628;DHT22;40915;50.826;4.356;2023-10-13T06:06:25;18.00;99.90
25628;DHT22;40915;50.826;4.356;2023-10-13T06:09:10;18.00;99.90
25628;DHT22;40915;50.826;4.356;2023-10-13T06:11:54;18.00;99.90
25628;DHT22;40915;50.826;4.356;2023-10-13T06:14:38;18.00;99.90
25628;DHT22;40915;50.826;4.356;2023-10-13T06:17:23;18.00;99.90
25628;DHT22;40915;50.826;4.356;2023-10-13T06:20:10;18.00;99.90
25628;DHT22;40915;50.826;4.356;2023-10-13T06:22:54;18.00;99.90
25628;DHT22;40915;50.826;4.356;2023-10-13T06:25:39;18.00;99.90
25628;DHT22;40915;50.826;4.356;2023-10-13T06:28:23;18.10;99.90
25628;DHT22;40915;50.826;4.356;2023-10-13T06:31:08;18.20;99.90
25628;DHT22;40915;50.826;4.356;2023-10-13T06:33:37;18.20;99.90
25628;DHT22;40915;50.826;4.356;2023-10-13T06:36:10;18.20;99.90
25628;DHT22;40915;50.826;4.356;2023-10-13T06:38:36;18.30;99.90
25628;DHT22;40915;50.826;4.356;2023-10-13T06:41:03;18.30;99.90
25628;DHT22;40915;50.826;4.356;2023-10-13T06:43:36;18.30;99.90
25628;DHT22;40915;50.826;4.356;2023-10-13T06:46:12;18.30;99.90
25628;DHT22;40915;50.826;4.356;2023-10-13T06:48:49;18.30;99.90
25628;DHT22;40915;50.826;4.356;2023-10-13T06:51:19;18.40;99.90
25628;DHT22;40915;50.826;4.356;2023-10-13T06:53:49;18.40;99.90
25628;DHT22;40915;50.826;4.356;2023-10-13T06:56:15;18.50;99.90
25628;DHT22;40915;50.826;4.356;2023-10-13T06:59:04;18.60;99.90
25628;DHT22;40915;50.826;4.356;2023-10-13T07:01:32;18.70;99.90
25628;DHT22;40915;50.826;4.356;2023-10-13T07:04:08;18.70;99.90
25628;DHT22;40915;50.826;4.356;2023-10-13T07:06:42;18.70;99.90
25628;DHT22;40915;50.826;4.356;2023-10-13T07:09:13;18.70;99.90
25628;DHT22;40915;50.826;4.356;2023-10-13T07:12:05;18.80;99.90
25628;DHT22;40915;50.826;4.356;2023-10-13T07:14:45;18.80;99.90
25628;DHT22;40915;50.826;4.356;2023-10-13T07:17:17;18.80;99.90
25628;DHT22;40915;50.826;4.356;2023-10-13T07:19:54;18.80;99.90
25628;DHT22;40915;50.826;4.356;2023-10-13T07:22:21;18.90;99.90
25628;DHT22;40915;50.826;4.356;2023-10-13T07:24:49;19.00;99.90
25628;DHT22;40915;50.826;4.356;2023-10-13T07:27:22;19.10;99.90
25628;DHT22;40915;50.826;4.356;2023-10-13T07:29:56;19.20;99.90
25628;DHT22;40915;50.826;4.356;2023-10-13T07:32:39;19.20;99.90
25628;DHT22;40915;50.826;4.356;2023-10-13T07:35:16;19.30;99.90
25628;DHT22;40915;50.826;4.356;2023-10-13T07:37:46;19.40;99.90
25628;DHT22;40915;50.826;4.356;2023-10-13T07:40:18;19.30;99.90
25628;DHT22;40915;50.826;4.356;2023-10-13T07:42:49;19.40;99.90
25628;DHT22;40915;50.826;4.356;2023-10-13T07:45:15;19.30;99.90
25628;DHT22;40915;50.826;4.356;2023-10-13T07:47:51;19.40;99.90
25628;DHT22;40915;50.826;4.356;2023-10-13T07:50:16;19.40;99.90
25628;DHT22;40915;50.826;4.356;2023-10-13T07:52:51;19.60;99.90
25628;DHT22;40915;50.826;4.356;2023-10-13T07:55:24;19.60;99.90
25628;DHT22;40915;50.826;4.356;2023-10-13T07:57:50;19.70;99.90
25628;DHT22;40915;50.826;4.356;2023-10-13T08:00:22;19.70;99.90
25628;DHT22;40915;50.826;4.356;2023-10-13T08:03:14;19.70;99.90
25628;DHT22;40915;50.826;4.356;2023-10-13T08:05:40;19.80;99.90
25628;DHT22;40915;50.826;4.356;2023-10-13T08:08:24;19.90;99.90
25628;DHT22;40915;50.826;4.356;2023-10-13T08:13:39;20.00;99.90
25628;DHT22;40915;50.826;4.356;2023-10-13T08:16:14;20.00;99.90
25628;DHT22;40915;50.826;4.356;2023-10-13T08:18:48;20.00;99.90
25628;DHT22;40915;50.826;4.356;2023-10-13T08:21:15;20.00;99.90
25628;DHT22;40915;50.826;4.356;2023-10-13T08:23:45;20.00;99.90
25628;DHT22;40915;50.826;4.356;2023-10-13T08:26:31;20.00;99.90
25628;DHT22;40915;50.826;4.356;2023-10-13T08:29:03;20.00;99.90
25628;DHT22;40915;50.826;4.356;2023-10-13T08:31:47;20.10;99.90
25628;DHT22;40915;50.826;4.356;2023-10-13T08:34:32;20.10;99.90
25628;DHT22;40915;50.826;4.356;2023-10-13T08:37:27;20.10;99.90
25628;DHT22;40915;50.826;4.356;2023-10-13T08:39:56;20.20;99.90
25628;DHT22;40915;50.826;4.356;2023-10-13T08:42:36;20.20;99.90
25628;DHT22;40915;50.826;4.356;2023-10-13T08:45:15;20.30;99.90
25628;DHT22;40915;50.826;4.356;2023-10-13T08:47:57;20.30;99.90
25628;DHT22;40915;50.826;4.356;2023-10-13T08:50:39;20.40;99.90
25628;DHT22;40915;50.826;4.356;2023-10-13T08:53:34;20.30;99.90
25628;DHT22;40915;50.826;4.356;2023-10-13T08:56:10;20.40;99.90
25628;DHT22;40915;50.826;4.356;2023-10-13T08:58:39;20.40;99.90
25628;DHT22;40915;50.826;4.356;2023-10-13T09:01:28;20.40;99.90
25628;DHT22;40915;50.826;4.356;2023-10-13T09:04:07;20.40;99.90
25628;DHT22;40915;50.826;4.356;2023-10-13T09:07:03;20.50;99.90
25628;DHT22;40915;50.826;4.356;2023-10-13T09:09:47;20.50;99.90
25628;DHT22;40915;50.826;4.356;2023-10-13T09:12:23;20.50;99.90
25628;DHT22;40915;50.826;4.356;2023-10-13T09:15:10;20.60;99.90
25628;DHT22;40915;50.826;4.356;2023-10-13T09:17:48;20.50;99.90
25628;DHT22;40915;50.826;4.356;2023-10-13T09:20:27;20.60;99.90
25628;DHT22;40915;50.826;4.356;2023-10-13T09:23:10;20.60;99.90
25628;DHT22;40915;50.826;4.356;2023-10-13T09:25:39;20.70;99.90
25628;DHT22;40915;50.826;4.356;2023-10-13T09:28:19;20.70;99.90
25628;DHT22;40915;50.826;4.356;2023-10-13T09:30:48;20.80;99.90
25628;DHT22;40915;50.826;4.356;2023-10-13T09:33:20;20.80;99.90
25628;DHT22;40915;50.826;4.356;2023-10-13T09:35:53;20.80;99.90
25628;DHT22;40915;50.826;4.356;2023-10-13T09:38:19;20.80;99.90
25628;DHT22;40915;50.826;4.356;2023-10-13T09:40:46;20.80;99.90
25628;DHT22;40915;50.826;4.356;2023-10-13T09:43:16;21.00;99.90
25628;DHT22;40915;50.826;4.356;2023-10-13T09:45:46;21.00;99.90
25628;DHT22;40915;50.826;4.356;2023-10-13T09:48:36;21.00;99.90
25628;DHT22;40915;50.826;4.356;2023-10-13T09:51:03;21.10;99.90
25628;DHT22;40915;50.826;4.356;2023-10-13T09:53:33;21.20;99.90
25628;DHT22;40915;50.826;4.356;2023-10-13T10:01:28;21.40;99.90
25628;DHT22;40915;50.826;4.356;2023-10-13T10:04:10;21.60;99.90
25628;DHT22;40915;50.826;4.356;2023-10-13T10:06:54;21.60;99.90
25628;DHT22;40915;50.826;4.356;2023-10-13T10:09:27;21.70;99.90
25628;DHT22;40915;50.826;4.356;2023-10-13T10:17:24;21.80;99.90
25628;DHT22;40915;50.826;4.356;2023-10-13T10:19:55;21.80;99.90
25628;DHT22;40915;50.826;4.356;2023-10-13T10:22:32;21.80;99.90
25628;DHT22;40915;50.826;4.356;2023-10-13T10:25:09;21.90;99.90
25628;DHT22;40915;50.826;4.356;2023-10-13T10:27:59;21.90;99.90
25628;DHT22;40915;50.826;4.356;2023-10-13T10:30:29;22.10;99.90
25628;DHT22;40915;50.826;4.356;2023-10-13T10:32:58;22.10;99.90
25628;DHT22;40915;50.826;4.356;2023-10-13T10:35:25;22.10;99.90
25628;DHT22;40915;50.826;4.356;2023-10-13T10:37:56;22.10;99.90
25628;DHT22;40915;50.826;4.356;2023-10-13T10:40:29;22.20;99.90
25628;DHT22;40915;50.826;4.356;2023-10-13T10:43:12;22.20;99.90
25628;DHT22;40915;50.826;4.356;2023-10-13T10:45:48;22.20;99.90
25628;DHT22;40915;50.826;4.356;2023-10-13T10:48:15;22.20;99.90
25628;DHT22;40915;50.826;4.356;2023-10-13T10:50:56;22.30;99.90
25628;DHT22;40915;50.826;4.356;2023-10-13T10:53:23;22.40;99.90
25628;DHT22;40915;50.826;4.356;2023-10-13T10:56:04;22.60;99.90
25628;DHT22;40915;50.826;4.356;2023-10-13T10:58:36;22.60;99.90
25628;DHT22;40915;50.826;4.356;2023-10-13T11:01:09;22.70;99.90
25628;DHT22;40915;50.826;4.356;2023-10-13T11:03:54;22.80;99.90
25628;DHT22;40915;50.826;4.356;2023-10-13T11:06:26;22.80;99.90
25628;DHT22;40915;50.826;4.356;2023-10-13T11:09:07;22.70;99.90
25628;DHT22;40915;50.826;4.356;2023-10-13T11:11:47;22.70;99.90
25628;DHT22;40915;50.826;4.356;2023-10-13T11:14:28;22.70;99.90
25628;DHT22;40915;50.826;4.356;2023-10-13T11:16:56;22.90;99.90
25628;DHT22;40915;50.826;4.356;2023-10-13T11:22:15;23.00;99.90
25628;DHT22;40915;50.826;4.356;2023-10-13T11:25:06;23.00;99.90
25628;DHT22;40915;50.826;4.356;2023-10-13T11:27:41;23.20;99.90
25628;DHT22;40915;50.826;4.356;2023-10-13T11:30:22;23.30;99.90
25628;DHT22;40915;50.826;4.356;2023-10-13T11:33:05;23.50;99.90
25628;DHT22;40915;50.826;4.356;2023-10-13T11:35:36;23.50;99.90
25628;DHT22;40915;50.826;4.356;2023-10-13T11:38:22;23.50;99.90
25628;DHT22;40915;50.826;4.356;2023-10-13T11:40:57;23.40;99.90
25628;DHT22;40915;50.826;4.356;2023-10-13T11:46:20;23.50;99.90
25628;DHT22;40915;50.826;4.356;2023-10-13T11:49:05;23.50;99.90
25628;DHT22;40915;50.826;4.356;2023-10-13T11:51:43;23.50;99.90
25628;DHT22;40915;50.826;4.356;2023-10-13T11:54:17;23.40;99.90
25628;DHT22;40915;50.826;4.356;2023-10-13T11:56:44;23.40;99.90
25628;DHT22;40915;50.826;4.356;2023-10-13T11:59:10;23.40;99.90
25628;DHT22;40915;50.826;4.356;2023-10-13T12:01:50;23.50;99.90
25628;DHT22;40915;50.826;4.356;2023-10-13T12:04:35;23.50;99.90
25628;DHT22;40915;50.826;4.356;2023-10-13T12:07:21;23.60;99.90
25628;DHT22;40915;50.826;4.356;2023-10-13T12:10:06;23.50;99.90
25628;DHT22;40915;50.826;4.356;2023-10-13T12:12:40;23.50;99.90
25628;DHT22;40915;50.826;4.356;2023-10-13T12:15:08;23.30;99.90
25628;DHT22;40915;50.826;4.356;2023-10-13T12:17:35;23.30;99.90
25628;DHT22;40915;50.826;4.356;2023-10-13T12:20:02;23.30;99.90
25628;DHT22;40915;50.826;4.356;2023-10-13T12:22:32;23.20;99.90
25628;DHT22;40915;50.826;4.356;2023-10-13T12:25:07;23.10;99.90
25628;DHT22;40915;50.826;4.356;2023-10-13T12:27:53;23.00;99.90
25628;DHT22;40915;50.826;4.356;2023-10-13T12:30:23;22.90;99.90
25628;DHT22;40915;50.826;4.356;2023-10-13T12:33:04;22.80;99.90
25628;DHT22;40915;50.826;4.356;2023-10-13T12:35:35;22.80;99.90
25628;DHT22;40915;50.826;4.356;2023-10-13T12:38:10;22.60;99.90
25628;DHT22;40915;50.826;4.356;2023-10-13T12:41:04;22.50;99.90
25628;DHT22;40915;50.826;4.356;2023-10-13T12:43:49;22.50;99.90
25628;DHT22;40915;50.826;4.356;2023-10-13T12:46:37;22.50;99.90
25628;DHT22;40915;50.826;4.356;2023-10-13T12:49:21;22.50;99.90
25628;DHT22;40915;50.826;4.356;2023-10-13T12:52:05;22.50;99.90
25628;DHT22;40915;50.826;4.356;2023-10-13T12:54:47;22.50;99.90
25628;DHT22;40915;50.826;4.356;2023-10-13T12:57:28;22.50;99.90
25628;DHT22;40915;50.826;4.356;2023-10-13T12:59:54;22.60;99.90
25628;DHT22;40915;50.826;4.356;2023-10-13T13:02:20;22.60;99.90
25628;DHT22;40915;50.826;4.356;2023-10-13T13:04:46;22.60;99.90
25628;DHT22;40915;50.826;4.356;2023-10-13T13:07:16;22.70;99.90
25628;DHT22;40915;50.826;4.356;2023-10-13T13:09:42;22.70;99.90
25628;DHT22;40915;50.826;4.356;2023-10-13T13:12:08;22.80;99.90
25628;DHT22;40915;50.826;4.356;2023-10-13T13:14:38;22.80;99.90
25628;DHT22;40915;50.826;4.356;2023-10-13T13:17:06;22.80;99.90
25628;DHT22;40915;50.826;4.356;2023-10-13T13:19:36;22.80;99.90
25628;DHT22;40915;50.826;4.356;2023-10-13T13:22:13;22.80;99.90
25628;DHT22;40915;50.826;4.356;2023-10-13T13:24:43;22.70;99.90
25628;DHT22;40915;50.826;4.356;2023-10-13T13:27:10;22.80;99.90
25628;DHT22;40915;50.826;4.356;2023-10-13T13:29:40;22.80;99.90
25628;DHT22;40915;50.826;4.356;2023-10-13T13:32:05;22.60;99.90
25628;DHT22;40915;50.826;4.356;2023-10-13T13:34:32;22.60;99.90
25628;DHT22;40915;50.826;4.356;2023-10-13T13:36:58;22.60;99.90
25628;DHT22;40915;50.826;4.356;2023-10-13T13:39:28;22.60;99.90
25628;DHT22;40915;50.826;4.356;2023-10-13T13:41:57;22.70;99.90
25628;DHT22;40915;50.826;4.356;2023-10-13T13:44:26;22.80;99.90
25628;DHT22;40915;50.826;4.356;2023-10-13T13:47:02;22.70;99.90
25628;DHT22;40915;50.826;4.356;2023-10-13T13:49:40;22.80;99.90
25628;DHT22;40915;50.826;4.356;2023-10-13T13:52:11;22.90;99.90
25628;DHT22;40915;50.826;4.356;2023-10-13T13:54:43;22.90;99.90
25628;DHT22;40915;50.826;4.356;2023-10-13T13:57:09;22.80;99.90
25628;DHT22;40915;50.826;4.356;2023-10-13T13:59:34;22.80;99.90
25628;DHT22;40915;50.826;4.356;2023-10-13T14:02:02;22.90;99.90
25628;DHT22;40915;50.826;4.356;2023-10-13T14:04:32;22.90;99.90
25628;DHT22;40915;50.826;4.356;2023-10-13T14:06:58;22.90;99.90
25628;DHT22;40915;50.826;4.356;2023-10-13T14:09:24;22.90;99.90
25628;DHT22;40915;50.826;4.356;2023-10-13T14:12:02;22.80;99.90
25628;DHT22;40915;50.826;4.356;2023-10-13T14:14:46;22.90;99.90
25628;DHT22;40915;50.826;4.356;2023-10-13T14:17:23;22.90;99.90
25628;DHT22;40915;50.826;4.356;2023-10-13T14:19:57;22.90;99.90
25628;DHT22;40915;50.826;4.356;2023-10-13T14:22:24;22.70;99.90
25628;DHT22;40915;50.826;4.356;2023-10-13T14:24:51;22.80;99.90
25628;DHT22;40915;50.826;4.356;2023-10-13T14:27:20;22.70;99.90
25628;DHT22;40915;50.826;4.356;2023-10-13T14:29:50;22.70;99.90
25628;DHT22;40915;50.826;4.356;2023-10-13T14:32:20;22.70;99.90
25628;DHT22;40915;50.826;4.356;2023-10-13T14:34:50;22.70;99.90
25628;DHT22;40915;50.826;4.356;2023-10-13T14:37:20;22.70;99.90
25628;DHT22;40915;50.826;4.356;2023-10-13T14:39:56;22.60;99.90
25628;DHT22;40915;50.826;4.356;2023-10-13T14:42:26;22.60;99.90
25628;DHT22;40915;50.826;4.356;2023-10-13T14:44:52;22.60;99.90
25628;DHT22;40915;50.826;4.356;2023-10-13T14:47:24;22.50;99.90
25628;DHT22;40915;50.826;4.356;2023-10-13T14:49:53;22.50;99.90
25628;DHT22;40915;50.826;4.356;2023-10-13T14:52:21;22.40;99.90
25628;DHT22;40915;50.826;4.356;2023-10-13T14:54:47;22.30;99.90
25628;DHT22;40915;50.826;4.356;2023-10-13T14:57:13;22.50;99.90
25628;DHT22;40915;50.826;4.356;2023-10-13T14:59:39;22.20;99.90
25628;DHT22;40915;50.826;4.356;2023-10-13T15:02:05;22.10;99.90
25628;DHT22;40915;50.826;4.356;2023-10-13T15:04:31;22.10;99.90
25628;DHT22;40915;50.826;4.356;2023-10-13T15:07:01;22.10;99.90
25628;DHT22;40915;50.826;4.356;2023-10-13T15:09:29;22.00;99.90
25628;DHT22;40915;50.826;4.356;2023-10-13T15:11:55;21.90;99.90
25628;DHT22;40915;50.826;4.356;2023-10-13T15:14:21;21.90;99.90
25628;DHT22;40915;50.826;4.356;2023-10-13T15:16:49;21.80;99.90
25628;DHT22;40915;50.826;4.356;2023-10-13T15:19:15;21.70;99.90
25628;DHT22;40915;50.826;4.356;2023-10-13T15:21:43;21.70;99.90
25628;DHT22;40915;50.826;4.356;2023-10-13T15:24:14;21.70;99.90
25628;DHT22;40915;50.826;4.356;2023-10-13T15:26:41;21.60;99.90
25628;DHT22;40915;50.826;4.356;2023-10-13T15:29:18;21.50;99.90
25628;DHT22;40915;50.826;4.356;2023-10-13T15:31:51;21.60;99.90
25628;DHT22;40915;50.826;4.356;2023-10-13T15:34:29;21.50;99.90
25628;DHT22;40915;50.826;4.356;2023-10-13T15:36:56;21.40;99.90
25628;DHT22;40915;50.826;4.356;2023-10-13T15:39:22;21.40;99.90
25628;DHT22;40915;50.826;4.356;2023-10-13T15:41:55;20.90;99.90
25628;DHT22;40915;50.826;4.356;2023-10-13T15:44:27;21.30;99.90
25628;DHT22;40915;50.826;4.356;2023-10-13T15:46:57;21.30;99.90
25628;DHT22;40915;50.826;4.356;2023-10-13T15:49:23;21.20;99.90
25628;DHT22;40915;50.826;4.356;2023-10-13T15:51:49;21.20;99.90
25628;DHT22;40915;50.826;4.356;2023-10-13T15:54:17;21.20;99.90
25628;DHT22;40915;50.826;4.356;2023-10-13T15:56:43;21.30;99.90
25628;DHT22;40915;50.826;4.356;2023-10-13T15:59:10;21.20;99.90
25628;DHT22;40915;50.826;4.356;2023-10-13T16:01:36;21.20;99.90
25628;DHT22;40915;50.826;4.356;2023-10-13T16:04:04;21.20;99.90
25628;DHT22;40915;50.826;4.356;2023-10-13T16:06:37;21.20;99.90
25628;DHT22;40915;50.826;4.356;2023-10-13T16:09:03;21.20;99.90
25628;DHT22;40915;50.826;4.356;2023-10-13T16:11:29;21.20;99.90
25628;DHT22;40915;50.826;4.356;2023-10-13T16:13:54;21.20;99.90
25628;DHT22;40915;50.826;4.356;2023-10-13T16:16:23;21.20;99.90
25628;DHT22;40915;50.826;4.356;2023-10-13T16:18:51;21.10;99.90
25628;DHT22;40915;50.826;4.356;2023-10-13T16:21:17;21.10;99.90
25628;DHT22;40915;50.826;4.356;2023-10-13T16:23:44;21.10;99.90
25628;DHT22;40915;50.826;4.356;2023-10-13T16:26:13;21.10;99.90
25628;DHT22;40915;50.826;4.356;2023-10-13T16:28:39;21.10;99.90
25628;DHT22;40915;50.826;4.356;2023-10-13T16:31:05;21.20;99.90
25628;DHT22;40915;50.826;4.356;2023-10-13T16:33:36;21.20;99.90
25628;DHT22;40915;50.826;4.356;2023-10-13T16:36:03;21.10;99.90